sensor_id;sensor_type;location;lat;lon;timestamp;P1;durP1;ratioP1;P2;durP2;ratioP2
15486;SDS011;7845;53.698;10.078;2022-07-03T00:01:16;4.50;;;2.80;;
15486;SDS011;7845;53.698;10.078;2022-07-03T00:03:41;5.23;;;2.90;;
15486;SDS011;7845;53.698;10.078;2022-07-03T00:06:06;4.23;;;2.47;;
15486;SDS011;7845;53.698;10.078;2022-07-03T00:08:32;4.63;;;2.60;;
15486;SDS011;7845;53.698;10.078;2022-07-03T00:10:57;4.50;;;2.90;;
15486;SDS011;7845;53.698;10.078;2022-07-03T00:13:22;3.80;;;2.50;;
15486;SDS011;7845;53.698;10.078;2022-07-03T00:15:47;4.03;;;2.23;;
15486;SDS011;7845;53.698;10.078;2022-07-03T00:18:13;6.03;;;3.03;;
15486;SDS011;7845;53.698;10.078;2022-07-03T00:20:40;4.53;;;2.63;;
15486;SDS011;7845;53.698;10.078;2022-07-03T00:23:13;4.00;;;2.30;;
15486;SDS011;7845;53.698;10.078;2022-07-03T00:25:41;3.73;;;2.00;;
15486;SDS011;7845;53.698;10.078;2022-07-03T00:28:07;3.90;;;2.17;;
15486;SDS011;7845;53.698;10.078;2022-07-03T00:30:34;3.77;;;2.63;;
15486;SDS011;7845;53.698;10.078;2022-07-03T00:33:01;5.23;;;2.60;;
15486;SDS011;7845;53.698;10.078;2022-07-03T00:35:28;8.03;;;2.60;;
15486;SDS011;7845;53.698;10.078;2022-07-03T00:38:01;3.77;;;2.50;;
15486;SDS011;7845;53.698;10.078;2022-07-03T00:40:27;4.20;;;2.47;;
15486;SDS011;7845;53.698;10.078;2022-07-03T00:42:54;3.80;;;2.37;;
15486;SDS011;7845;53.698;10.078;2022-07-03T00:45:21;4.07;;;2.07;;
15486;SDS011;7845;53.698;10.078;2022-07-03T00:47:47;3.63;;;2.33;;
15486;SDS011;7845;53.698;10.078;2022-07-03T00:50:13;3.80;;;2.70;;
15486;SDS011;7845;53.698;10.078;2022-07-03T00:52:38;4.20;;;2.67;;
15486;SDS011;7845;53.698;10.078;2022-07-03T00:55:14;3.20;;;2.20;;
15486;SDS011;7845;53.698;10.078;2022-07-03T00:57:43;3.57;;;2.20;;
15486;SDS011;7845;53.698;10.078;2022-07-03T01:00:10;5.17;;;2.50;;
15486;SDS011;7845;53.698;10.078;2022-07-03T01:10:58;3.53;;;2.50;;
15486;SDS011;7845;53.698;10.078;2022-07-03T01:13:31;3.00;;;1.90;;
15486;SDS011;7845;53.698;10.078;2022-07-03T01:16:17;3.90;;;2.97;;
15486;SDS011;7845;53.698;10.078;2022-07-03T01:27:28;3.97;;;2.53;;
15486;SDS011;7845;53.698;10.078;2022-07-03T01:30:07;3.30;;;2.43;;
15486;SDS011;7845;53.698;10.078;2022-07-03T01:32:38;3.47;;;2.70;;
15486;SDS011;7845;53.698;10.078;2022-07-03T01:35:07;3.90;;;2.10;;
15486;SDS011;7845;53.698;10.078;2022-07-03T01:37:34;4.53;;;2.67;;
15486;SDS011;7845;53.698;10.078;2022-07-03T01:40:00;3.90;;;2.40;;
15486;SDS011;7845;53.698;10.078;2022-07-03T01:42:28;4.10;;;2.53;;
15486;SDS011;7845;53.698;10.078;2022-07-03T01:44:58;3.33;;;2.30;;
15486;SDS011;7845;53.698;10.078;2022-07-03T01:47:25;5.70;;;2.50;;
15486;SDS011;7845;53.698;10.078;2022-07-03T01:49:51;3.20;;;2.20;;
15486;SDS011;7845;53.698;10.078;2022-07-03T01:52:19;3.17;;;2.30;;
15486;SDS011;7845;53.698;10.078;2022-07-03T01:54:45;3.43;;;2.10;;
15486;SDS011;7845;53.698;10.078;2022-07-03T01:57:12;3.10;;;2.20;;
15486;SDS011;7845;53.698;10.078;2022-07-03T01:59:38;4.23;;;2.40;;
15486;SDS011;7845;53.698;10.078;2022-07-03T02:02:19;3.67;;;2.67;;
15486;SDS011;7845;53.698;10.078;2022-07-03T02:08:00;4.53;;;2.30;;
15486;SDS011;7845;53.698;10.078;2022-07-03T02:10:40;3.67;;;2.30;;
15486;SDS011;7845;53.698;10.078;2022-07-03T02:13:34;4.00;;;2.63;;
15486;SDS011;7845;53.698;10.078;2022-07-03T02:15:58;3.17;;;2.33;;
15486;SDS011;7845;53.698;10.078;2022-07-03T02:18:42;4.13;;;2.30;;
15486;SDS011;7845;53.698;10.078;2022-07-03T02:21:17;3.70;;;2.20;;
15486;SDS011;7845;53.698;10.078;2022-07-03T02:26:40;5.57;;;2.50;;
15486;SDS011;7845;53.698;10.078;2022-07-03T02:29:09;3.77;;;2.30;;
15486;SDS011;7845;53.698;10.078;2022-07-03T02:31:43;3.83;;;2.00;;
15486;SDS011;7845;53.698;10.078;2022-07-03T02:34:16;3.07;;;2.17;;
15486;SDS011;7845;53.698;10.078;2022-07-03T02:36:44;3.77;;;2.17;;
15486;SDS011;7845;53.698;10.078;2022-07-03T02:39:14;5.10;;;2.80;;
15486;SDS011;7845;53.698;10.078;2022-07-03T02:41:49;3.70;;;2.20;;
15486;SDS011;7845;53.698;10.078;2022-07-03T02:44:27;3.20;;;2.20;;
15486;SDS011;7845;53.698;10.078;2022-07-03T02:52:31;6.97;;;2.50;;
15486;SDS011;7845;53.698;10.078;2022-07-03T02:55:07;3.10;;;2.10;;
15486;SDS011;7845;53.698;10.078;2022-07-03T02:57:37;3.30;;;2.23;;
15486;SDS011;7845;53.698;10.078;2022-07-03T03:00:05;3.23;;;2.43;;
15486;SDS011;7845;53.698;10.078;2022-07-03T03:02:52;3.30;;;2.13;;
15486;SDS011;7845;53.698;10.078;2022-07-03T03:05:36;4.80;;;2.60;;
15486;SDS011;7845;53.698;10.078;2022-07-03T03:10:58;3.53;;;2.43;;
15486;SDS011;7845;53.698;10.078;2022-07-03T03:13:28;5.13;;;2.67;;
15486;SDS011;7845;53.698;10.078;2022-07-03T03:16:09;3.70;;;2.57;;
15486;SDS011;7845;53.698;10.078;2022-07-03T03:18:39;5.50;;;2.67;;
15486;SDS011;7845;53.698;10.078;2022-07-03T03:21:08;4.90;;;2.60;;
15486;SDS011;7845;53.698;10.078;2022-07-03T03:23:51;3.43;;;2.63;;
15486;SDS011;7845;53.698;10.078;2022-07-03T03:26:20;4.70;;;2.10;;
15486;SDS011;7845;53.698;10.078;2022-07-03T03:28:48;3.13;;;2.20;;
15486;SDS011;7845;53.698;10.078;2022-07-03T03:31:14;3.13;;;2.00;;
15486;SDS011;7845;53.698;10.078;2022-07-03T03:33:40;4.10;;;2.60;;
15486;SDS011;7845;53.698;10.078;2022-07-03T03:36:10;4.53;;;2.63;;
15486;SDS011;7845;53.698;10.078;2022-07-03T03:38:38;3.80;;;2.40;;
15486;SDS011;7845;53.698;10.078;2022-07-03T03:41:04;3.03;;;2.20;;
15486;SDS011;7845;53.698;10.078;2022-07-03T03:43:30;3.27;;;2.10;;
15486;SDS011;7845;53.698;10.078;2022-07-03T03:45:56;5.40;;;2.40;;
15486;SDS011;7845;53.698;10.078;2022-07-03T03:48:22;3.90;;;2.70;;
15486;SDS011;7845;53.698;10.078;2022-07-03T03:50:48;3.60;;;2.20;;
15486;SDS011;7845;53.698;10.078;2022-07-03T03:53:13;4.20;;;2.40;;
15486;SDS011;7845;53.698;10.078;2022-07-03T03:58:28;3.60;;;2.33;;
15486;SDS011;7845;53.698;10.078;2022-07-03T04:00:55;3.77;;;2.40;;
15486;SDS011;7845;53.698;10.078;2022-07-03T04:03:22;3.77;;;2.40;;
15486;SDS011;7845;53.698;10.078;2022-07-03T04:05:47;6.87;;;2.83;;
15486;SDS011;7845;53.698;10.078;2022-07-03T04:08:13;3.50;;;2.57;;
15486;SDS011;7845;53.698;10.078;2022-07-03T04:10:38;3.53;;;2.20;;
15486;SDS011;7845;53.698;10.078;2022-07-03T04:13:03;3.40;;;2.30;;
15486;SDS011;7845;53.698;10.078;2022-07-03T04:15:29;3.60;;;2.43;;
15486;SDS011;7845;53.698;10.078;2022-07-03T04:17:54;3.43;;;2.67;;
15486;SDS011;7845;53.698;10.078;2022-07-03T04:20:19;3.00;;;1.93;;
15486;SDS011;7845;53.698;10.078;2022-07-03T04:22:45;3.00;;;2.10;;
15486;SDS011;7845;53.698;10.078;2022-07-03T04:25:11;3.20;;;2.20;;
15486;SDS011;7845;53.698;10.078;2022-07-03T04:27:36;4.70;;;2.30;;
15486;SDS011;7845;53.698;10.078;2022-07-03T04:30:01;4.30;;;2.20;;
15486;SDS011;7845;53.698;10.078;2022-07-03T04:32:27;3.87;;;2.23;;
15486;SDS011;7845;53.698;10.078;2022-07-03T04:34:52;3.23;;;2.20;;
15486;SDS011;7845;53.698;10.078;2022-07-03T04:37:18;3.50;;;2.23;;
15486;SDS011;7845;53.698;10.078;2022-07-03T04:39:43;3.70;;;1.97;;
15486;SDS011;7845;53.698;10.078;2022-07-03T04:42:09;5.30;;;2.00;;
15486;SDS011;7845;53.698;10.078;2022-07-03T04:44:35;3.37;;;1.87;;
15486;SDS011;7845;53.698;10.078;2022-07-03T04:47:00;3.10;;;1.80;;
15486;SDS011;7845;53.698;10.078;2022-07-03T04:49:25;2.90;;;1.57;;
15486;SDS011;7845;53.698;10.078;2022-07-03T04:51:51;3.73;;;1.80;;
15486;SDS011;7845;53.698;10.078;2022-07-03T04:54:17;3.33;;;1.70;;
15486;SDS011;7845;53.698;10.078;2022-07-03T04:56:43;3.20;;;1.70;;
15486;SDS011;7845;53.698;10.078;2022-07-03T04:59:09;3.60;;;1.90;;
15486;SDS011;7845;53.698;10.078;2022-07-03T05:01:34;3.43;;;2.00;;
15486;SDS011;7845;53.698;10.078;2022-07-03T05:03:59;2.90;;;2.10;;
15486;SDS011;7845;53.698;10.078;2022-07-03T05:06:25;2.87;;;1.93;;
15486;SDS011;7845;53.698;10.078;2022-07-03T05:08:50;3.43;;;1.97;;
15486;SDS011;7845;53.698;10.078;2022-07-03T05:11:15;3.43;;;1.93;;
15486;SDS011;7845;53.698;10.078;2022-07-03T05:13:40;3.30;;;2.00;;
15486;SDS011;7845;53.698;10.078;2022-07-03T05:16:06;3.47;;;1.90;;
15486;SDS011;7845;53.698;10.078;2022-07-03T05:18:31;3.83;;;1.90;;
15486;SDS011;7845;53.698;10.078;2022-07-03T05:20:58;2.53;;;1.80;;
15486;SDS011;7845;53.698;10.078;2022-07-03T05:23:23;4.33;;;2.10;;
15486;SDS011;7845;53.698;10.078;2022-07-03T05:25:49;3.43;;;2.00;;
15486;SDS011;7845;53.698;10.078;2022-07-03T05:28:14;3.20;;;2.03;;
15486;SDS011;7845;53.698;10.078;2022-07-03T05:30:40;3.63;;;2.27;;
15486;SDS011;7845;53.698;10.078;2022-07-03T05:33:05;4.10;;;2.20;;
15486;SDS011;7845;53.698;10.078;2022-07-03T05:35:31;4.70;;;2.77;;
15486;SDS011;7845;53.698;10.078;2022-07-03T05:37:56;3.70;;;2.17;;
15486;SDS011;7845;53.698;10.078;2022-07-03T05:40:21;2.90;;;2.10;;
15486;SDS011;7845;53.698;10.078;2022-07-03T05:42:47;3.80;;;2.20;;
15486;SDS011;7845;53.698;10.078;2022-07-03T05:45:12;3.10;;;2.30;;
15486;SDS011;7845;53.698;10.078;2022-07-03T05:47:37;5.50;;;2.30;;
15486;SDS011;7845;53.698;10.078;2022-07-03T05:50:03;3.17;;;2.37;;
15486;SDS011;7845;53.698;10.078;2022-07-03T05:52:28;3.00;;;2.10;;
15486;SDS011;7845;53.698;10.078;2022-07-03T05:54:54;3.00;;;2.10;;
15486;SDS011;7845;53.698;10.078;2022-07-03T05:57:19;2.63;;;1.83;;
15486;SDS011;7845;53.698;10.078;2022-07-03T05:59:45;3.00;;;2.20;;
15486;SDS011;7845;53.698;10.078;2022-07-03T06:02:11;3.20;;;2.10;;
15486;SDS011;7845;53.698;10.078;2022-07-03T06:04:37;3.80;;;2.23;;
15486;SDS011;7845;53.698;10.078;2022-07-03T06:07:02;3.77;;;2.47;;
15486;SDS011;7845;53.698;10.078;2022-07-03T06:09:28;4.90;;;2.47;;
15486;SDS011;7845;53.698;10.078;2022-07-03T06:11:53;3.40;;;2.30;;
15486;SDS011;7845;53.698;10.078;2022-07-03T06:14:18;3.10;;;2.40;;
15486;SDS011;7845;53.698;10.078;2022-07-03T06:16:44;3.20;;;2.10;;
15486;SDS011;7845;53.698;10.078;2022-07-03T06:19:09;3.53;;;2.13;;
15486;SDS011;7845;53.698;10.078;2022-07-03T06:21:34;4.23;;;2.20;;
15486;SDS011;7845;53.698;10.078;2022-07-03T06:23:59;3.50;;;2.37;;
15486;SDS011;7845;53.698;10.078;2022-07-03T06:26:25;3.27;;;2.07;;
15486;SDS011;7845;53.698;10.078;2022-07-03T06:28:51;3.30;;;2.10;;
15486;SDS011;7845;53.698;10.078;2022-07-03T06:31:16;3.90;;;2.77;;
15486;SDS011;7845;53.698;10.078;2022-07-03T06:33:42;4.00;;;2.33;;
15486;SDS011;7845;53.698;10.078;2022-07-03T06:36:07;2.90;;;2.23;;
15486;SDS011;7845;53.698;10.078;2022-07-03T06:38:32;3.97;;;2.10;;
15486;SDS011;7845;53.698;10.078;2022-07-03T06:40:58;5.43;;;2.10;;
15486;SDS011;7845;53.698;10.078;2022-07-03T06:43:23;4.33;;;2.23;;
15486;SDS011;7845;53.698;10.078;2022-07-03T06:45:48;6.83;;;2.50;;
15486;SDS011;7845;53.698;10.078;2022-07-03T06:48:14;3.83;;;1.90;;
15486;SDS011;7845;53.698;10.078;2022-07-03T06:50:39;3.70;;;2.00;;
15486;SDS011;7845;53.698;10.078;2022-07-03T06:53:04;3.00;;;2.13;;
15486;SDS011;7845;53.698;10.078;2022-07-03T06:55:30;3.10;;;2.00;;
15486;SDS011;7845;53.698;10.078;2022-07-03T06:57:55;3.97;;;2.50;;
15486;SDS011;7845;53.698;10.078;2022-07-03T07:00:20;3.50;;;2.60;;
15486;SDS011;7845;53.698;10.078;2022-07-03T07:02:45;5.03;;;2.33;;
15486;SDS011;7845;53.698;10.078;2022-07-03T07:05:11;3.90;;;2.17;;
15486;SDS011;7845;53.698;10.078;2022-07-03T07:07:36;3.00;;;2.03;;
15486;SDS011;7845;53.698;10.078;2022-07-03T07:10:01;4.90;;;2.53;;
15486;SDS011;7845;53.698;10.078;2022-07-03T07:12:27;3.70;;;2.00;;
15486;SDS011;7845;53.698;10.078;2022-07-03T07:14:53;5.47;;;2.63;;
15486;SDS011;7845;53.698;10.078;2022-07-03T07:17:18;3.20;;;2.30;;
15486;SDS011;7845;53.698;10.078;2022-07-03T07:19:43;4.57;;;2.20;;
15486;SDS011;7845;53.698;10.078;2022-07-03T07:22:09;4.43;;;2.37;;
15486;SDS011;7845;53.698;10.078;2022-07-03T07:24:34;5.57;;;2.13;;
15486;SDS011;7845;53.698;10.078;2022-07-03T07:27:00;3.20;;;2.20;;
15486;SDS011;7845;53.698;10.078;2022-07-03T07:29:25;3.23;;;1.93;;
15486;SDS011;7845;53.698;10.078;2022-07-03T07:31:50;4.27;;;2.00;;
15486;SDS011;7845;53.698;10.078;2022-07-03T07:34:15;6.10;;;2.43;;
15486;SDS011;7845;53.698;10.078;2022-07-03T07:36:41;3.93;;;2.00;;
15486;SDS011;7845;53.698;10.078;2022-07-03T07:39:06;4.50;;;2.20;;
15486;SDS011;7845;53.698;10.078;2022-07-03T07:41:32;3.83;;;2.60;;
15486;SDS011;7845;53.698;10.078;2022-07-03T07:43:57;3.27;;;2.13;;
15486;SDS011;7845;53.698;10.078;2022-07-03T07:46:23;2.90;;;2.10;;
15486;SDS011;7845;53.698;10.078;2022-07-03T07:48:48;3.63;;;2.10;;
15486;SDS011;7845;53.698;10.078;2022-07-03T07:51:14;3.40;;;2.10;;
15486;SDS011;7845;53.698;10.078;2022-07-03T07:53:39;3.23;;;2.20;;
15486;SDS011;7845;53.698;10.078;2022-07-03T07:56:04;3.13;;;1.83;;
15486;SDS011;7845;53.698;10.078;2022-07-03T07:58:30;3.67;;;2.60;;
15486;SDS011;7845;53.698;10.078;2022-07-03T08:00:55;5.20;;;2.13;;
15486;SDS011;7845;53.698;10.078;2022-07-03T08:03:39;4.03;;;2.33;;
15486;SDS011;7845;53.698;10.078;2022-07-03T08:06:23;4.20;;;2.27;;
15486;SDS011;7845;53.698;10.078;2022-07-03T08:08:48;2.83;;;2.00;;
15486;SDS011;7845;53.698;10.078;2022-07-03T08:11:14;3.63;;;2.00;;
15486;SDS011;7845;53.698;10.078;2022-07-03T08:13:39;2.93;;;2.00;;
15486;SDS011;7845;53.698;10.078;2022-07-03T08:16:05;3.37;;;2.07;;
15486;SDS011;7845;53.698;10.078;2022-07-03T08:18:31;3.57;;;2.00;;
15486;SDS011;7845;53.698;10.078;2022-07-03T08:20:56;4.10;;;2.30;;
15486;SDS011;7845;53.698;10.078;2022-07-03T08:23:22;3.30;;;1.93;;
15486;SDS011;7845;53.698;10.078;2022-07-03T08:25:48;3.07;;;2.27;;
15486;SDS011;7845;53.698;10.078;2022-07-03T08:28:13;2.80;;;1.90;;
15486;SDS011;7845;53.698;10.078;2022-07-03T08:30:38;3.43;;;1.97;;
15486;SDS011;7845;53.698;10.078;2022-07-03T08:33:04;4.60;;;2.20;;
15486;SDS011;7845;53.698;10.078;2022-07-03T08:35:29;5.20;;;2.27;;
15486;SDS011;7845;53.698;10.078;2022-07-03T08:37:54;3.20;;;1.90;;
15486;SDS011;7845;53.698;10.078;2022-07-03T08:40:21;3.60;;;2.10;;
15486;SDS011;7845;53.698;10.078;2022-07-03T08:42:47;3.67;;;1.90;;
15486;SDS011;7845;53.698;10.078;2022-07-03T08:45:14;3.80;;;2.17;;
15486;SDS011;7845;53.698;10.078;2022-07-03T08:47:42;3.37;;;1.90;;
15486;SDS011;7845;53.698;10.078;2022-07-03T08:50:09;3.80;;;2.20;;
15486;SDS011;7845;53.698;10.078;2022-07-03T08:52:39;4.30;;;2.00;;
15486;SDS011;7845;53.698;10.078;2022-07-03T08:55:05;2.87;;;1.53;;
15486;SDS011;7845;53.698;10.078;2022-07-03T08:57:31;3.03;;;1.60;;
15486;SDS011;7845;53.698;10.078;2022-07-03T09:00:01;3.67;;;2.00;;
15486;SDS011;7845;53.698;10.078;2022-07-03T09:02:29;4.40;;;2.27;;
15486;SDS011;7845;53.698;10.078;2022-07-03T09:15:21;2.50;;;1.50;;
15486;SDS011;7845;53.698;10.078;2022-07-03T09:17:57;4.70;;;2.33;;
15486;SDS011;7845;53.698;10.078;2022-07-03T09:20:35;3.60;;;2.20;;
15486;SDS011;7845;53.698;10.078;2022-07-03T09:23:16;3.03;;;2.17;;
15486;SDS011;7845;53.698;10.078;2022-07-03T09:28:21;3.80;;;2.20;;
15486;SDS011;7845;53.698;10.078;2022-07-03T09:31:05;4.03;;;2.03;;
15486;SDS011;7845;53.698;10.078;2022-07-03T09:33:31;3.33;;;1.83;;
15486;SDS011;7845;53.698;10.078;2022-07-03T09:35:56;2.83;;;1.63;;
15486;SDS011;7845;53.698;10.078;2022-07-03T09:38:22;3.93;;;2.17;;
15486;SDS011;7845;53.698;10.078;2022-07-03T09:40:52;8.63;;;2.10;;
15486;SDS011;7845;53.698;10.078;2022-07-03T09:43:28;2.70;;;1.90;;
15486;SDS011;7845;53.698;10.078;2022-07-03T09:45:55;3.73;;;2.03;;
15486;SDS011;7845;53.698;10.078;2022-07-03T09:50:48;3.20;;;1.70;;
15486;SDS011;7845;53.698;10.078;2022-07-03T09:53:13;4.37;;;2.40;;
15486;SDS011;7845;53.698;10.078;2022-07-03T09:55:38;4.40;;;2.20;;
15486;SDS011;7845;53.698;10.078;2022-07-03T09:58:03;3.53;;;2.20;;
15486;SDS011;7845;53.698;10.078;2022-07-03T10:00:30;3.63;;;2.30;;
15486;SDS011;7845;53.698;10.078;2022-07-03T10:03:06;5.73;;;1.77;;
15486;SDS011;7845;53.698;10.078;2022-07-03T10:05:40;5.37;;;2.37;;
15486;SDS011;7845;53.698;10.078;2022-07-03T10:08:08;5.10;;;2.40;;
15486;SDS011;7845;53.698;10.078;2022-07-03T10:10:37;4.10;;;2.40;;
15486;SDS011;7845;53.698;10.078;2022-07-03T10:13:04;3.60;;;2.30;;
15486;SDS011;7845;53.698;10.078;2022-07-03T10:15:31;3.70;;;2.20;;
15486;SDS011;7845;53.698;10.078;2022-07-03T10:17:58;6.80;;;2.30;;
15486;SDS011;7845;53.698;10.078;2022-07-03T10:23:05;3.83;;;2.70;;
15486;SDS011;7845;53.698;10.078;2022-07-03T10:25:31;3.80;;;1.80;;
15486;SDS011;7845;53.698;10.078;2022-07-03T10:27:57;4.27;;;2.23;;
15486;SDS011;7845;53.698;10.078;2022-07-03T10:30:23;3.80;;;2.07;;
15486;SDS011;7845;53.698;10.078;2022-07-03T10:32:50;3.67;;;2.50;;
15486;SDS011;7845;53.698;10.078;2022-07-03T10:35:18;3.47;;;2.10;;
15486;SDS011;7845;53.698;10.078;2022-07-03T10:41:10;3.80;;;2.33;;
15486;SDS011;7845;53.698;10.078;2022-07-03T10:43:41;5.63;;;2.23;;
15486;SDS011;7845;53.698;10.078;2022-07-03T10:46:28;3.63;;;2.20;;
15486;SDS011;7845;53.698;10.078;2022-07-03T10:51:31;3.77;;;2.20;;
15486;SDS011;7845;53.698;10.078;2022-07-03T10:54:30;3.60;;;2.17;;
15486;SDS011;7845;53.698;10.078;2022-07-03T11:02:20;3.23;;;1.80;;
15486;SDS011;7845;53.698;10.078;2022-07-03T11:07:27;4.13;;;1.80;;
15486;SDS011;7845;53.698;10.078;2022-07-03T11:26:00;2.90;;;1.60;;
15486;SDS011;7845;53.698;10.078;2022-07-03T11:38:48;3.37;;;1.60;;
15486;SDS011;7845;53.698;10.078;2022-07-03T11:41:18;2.63;;;1.30;;
15486;SDS011;7845;53.698;10.078;2022-07-03T11:43:50;3.83;;;2.00;;
15486;SDS011;7845;53.698;10.078;2022-07-03T11:46:28;3.57;;;1.70;;
15486;SDS011;7845;53.698;10.078;2022-07-03T11:49:04;3.13;;;1.70;;
15486;SDS011;7845;53.698;10.078;2022-07-03T11:51:30;4.33;;;1.30;;
15486;SDS011;7845;53.698;10.078;2022-07-03T11:53:55;4.10;;;1.83;;
15486;SDS011;7845;53.698;10.078;2022-07-03T11:56:21;2.77;;;1.30;;
15486;SDS011;7845;53.698;10.078;2022-07-03T11:58:47;2.30;;;1.03;;
15486;SDS011;7845;53.698;10.078;2022-07-03T12:03:52;5.20;;;1.77;;
15486;SDS011;7845;53.698;10.078;2022-07-03T12:06:48;3.63;;;1.60;;
15486;SDS011;7845;53.698;10.078;2022-07-03T12:09:36;7.07;;;1.40;;
15486;SDS011;7845;53.698;10.078;2022-07-03T12:12:05;3.70;;;1.27;;
15486;SDS011;7845;53.698;10.078;2022-07-03T12:14:47;5.33;;;1.53;;
15486;SDS011;7845;53.698;10.078;2022-07-03T12:17:18;3.50;;;1.43;;
15486;SDS011;7845;53.698;10.078;2022-07-03T12:19:46;4.10;;;2.00;;
15486;SDS011;7845;53.698;10.078;2022-07-03T12:22:21;3.47;;;1.80;;
15486;SDS011;7845;53.698;10.078;2022-07-03T12:24:57;5.70;;;2.27;;
15486;SDS011;7845;53.698;10.078;2022-07-03T12:27:38;7.33;;;1.90;;
15486;SDS011;7845;53.698;10.078;2022-07-03T12:30:10;4.70;;;2.33;;
15486;SDS011;7845;53.698;10.078;2022-07-03T12:32:37;4.67;;;2.10;;
15486;SDS011;7845;53.698;10.078;2022-07-03T12:35:04;3.13;;;1.77;;
15486;SDS011;7845;53.698;10.078;2022-07-03T12:39:59;15.70;;;2.50;;
15486;SDS011;7845;53.698;10.078;2022-07-03T12:42:25;4.50;;;1.80;;
15486;SDS011;7845;53.698;10.078;2022-07-03T12:45:02;3.53;;;1.60;;
15486;SDS011;7845;53.698;10.078;2022-07-03T12:47:29;3.03;;;1.17;;
15486;SDS011;7845;53.698;10.078;2022-07-03T12:49:59;5.77;;;1.40;;
15486;SDS011;7845;53.698;10.078;2022-07-03T12:52:31;5.30;;;1.50;;
15486;SDS011;7845;53.698;10.078;2022-07-03T12:54:59;3.87;;;1.20;;
15486;SDS011;7845;53.698;10.078;2022-07-03T12:57:26;3.60;;;1.30;;
15486;SDS011;7845;53.698;10.078;2022-07-03T13:00:12;4.00;;;1.23;;
15486;SDS011;7845;53.698;10.078;2022-07-03T13:02:43;2.40;;;1.27;;
15486;SDS011;7845;53.698;10.078;2022-07-03T13:05:19;5.17;;;1.50;;
15486;SDS011;7845;53.698;10.078;2022-07-03T13:07:47;3.50;;;1.30;;
15486;SDS011;7845;53.698;10.078;2022-07-03T13:10:17;2.67;;;1.40;;
15486;SDS011;7845;53.698;10.078;2022-07-03T13:15:17;3.10;;;1.47;;
15486;SDS011;7845;53.698;10.078;2022-07-03T13:20:21;4.53;;;1.50;;
15486;SDS011;7845;53.698;10.078;2022-07-03T13:22:47;2.87;;;1.27;;
15486;SDS011;7845;53.698;10.078;2022-07-03T13:25:13;2.70;;;1.23;;
15486;SDS011;7845;53.698;10.078;2022-07-03T13:27:38;2.10;;;0.80;;
15486;SDS011;7845;53.698;10.078;2022-07-03T13:30:04;3.17;;;1.30;;
15486;SDS011;7845;53.698;10.078;2022-07-03T13:32:29;4.00;;;1.10;;
15486;SDS011;7845;53.698;10.078;2022-07-03T13:34:55;3.17;;;1.30;;
15486;SDS011;7845;53.698;10.078;2022-07-03T13:37:20;3.63;;;1.07;;
15486;SDS011;7845;53.698;10.078;2022-07-03T13:39:46;3.70;;;1.50;;
15486;SDS011;7845;53.698;10.078;2022-07-03T13:42:11;4.77;;;1.20;;
15486;SDS011;7845;53.698;10.078;2022-07-03T13:44:36;2.27;;;1.20;;
15486;SDS011;7845;53.698;10.078;2022-07-03T13:47:02;2.50;;;1.00;;
15486;SDS011;7845;53.698;10.078;2022-07-03T13:49:31;2.90;;;1.10;;
15486;SDS011;7845;53.698;10.078;2022-07-03T13:51:57;2.20;;;0.97;;
15486;SDS011;7845;53.698;10.078;2022-07-03T13:54:23;2.97;;;1.00;;
15486;SDS011;7845;53.698;10.078;2022-07-03T13:56:49;2.90;;;1.20;;
15486;SDS011;7845;53.698;10.078;2022-07-03T13:59:15;2.20;;;1.10;;
15486;SDS011;7845;53.698;10.078;2022-07-03T14:01:40;3.77;;;1.07;;
15486;SDS011;7845;53.698;10.078;2022-07-03T14:04:06;2.40;;;0.93;;
15486;SDS011;7845;53.698;10.078;2022-07-03T14:06:32;3.27;;;1.27;;
15486;SDS011;7845;53.698;10.078;2022-07-03T14:08:57;2.50;;;1.10;;
15486;SDS011;7845;53.698;10.078;2022-07-03T14:11:22;3.57;;;1.30;;
15486;SDS011;7845;53.698;10.078;2022-07-03T14:13:48;8.00;;;1.97;;
15486;SDS011;7845;53.698;10.078;2022-07-03T14:16:13;5.00;;;1.40;;
15486;SDS011;7845;53.698;10.078;2022-07-03T14:18:39;6.10;;;1.70;;
15486;SDS011;7845;53.698;10.078;2022-07-03T14:21:04;4.07;;;1.27;;
15486;SDS011;7845;53.698;10.078;2022-07-03T14:23:32;3.33;;;1.30;;
15486;SDS011;7845;53.698;10.078;2022-07-03T14:25:58;3.97;;;1.10;;
15486;SDS011;7845;53.698;10.078;2022-07-03T14:28:24;2.93;;;1.00;;
15486;SDS011;7845;53.698;10.078;2022-07-03T14:31:09;3.80;;;1.20;;
15486;SDS011;7845;53.698;10.078;2022-07-03T14:33:52;3.20;;;1.20;;
15486;SDS011;7845;53.698;10.078;2022-07-03T14:36:18;1.90;;;0.90;;
15486;SDS011;7845;53.698;10.078;2022-07-03T14:38:43;2.77;;;1.00;;
15486;SDS011;7845;53.698;10.078;2022-07-03T14:41:09;3.00;;;1.00;;
15486;SDS011;7845;53.698;10.078;2022-07-03T14:43:34;2.23;;;1.07;;
15486;SDS011;7845;53.698;10.078;2022-07-03T14:46:00;2.37;;;1.13;;
15486;SDS011;7845;53.698;10.078;2022-07-03T14:48:25;3.73;;;1.17;;
15486;SDS011;7845;53.698;10.078;2022-07-03T14:50:51;2.60;;;1.50;;
15486;SDS011;7845;53.698;10.078;2022-07-03T14:53:17;2.23;;;1.20;;
15486;SDS011;7845;53.698;10.078;2022-07-03T14:55:43;3.80;;;1.27;;
15486;SDS011;7845;53.698;10.078;2022-07-03T15:00:36;2.30;;;1.03;;
15486;SDS011;7845;53.698;10.078;2022-07-03T15:03:08;2.73;;;1.20;;
15486;SDS011;7845;53.698;10.078;2022-07-03T15:05:40;3.77;;;1.47;;
15486;SDS011;7845;53.698;10.078;2022-07-03T15:08:24;3.73;;;1.50;;
15486;SDS011;7845;53.698;10.078;2022-07-03T15:10:53;5.60;;;1.83;;
15486;SDS011;7845;53.698;10.078;2022-07-03T15:13:19;2.33;;;0.90;;
15486;SDS011;7845;53.698;10.078;2022-07-03T15:15:45;2.20;;;1.00;;
15486;SDS011;7845;53.698;10.078;2022-07-03T15:18:12;2.57;;;1.17;;
15486;SDS011;7845;53.698;10.078;2022-07-03T15:20:40;2.33;;;1.00;;
15486;SDS011;7845;53.698;10.078;2022-07-03T15:23:06;3.20;;;1.10;;
15486;SDS011;7845;53.698;10.078;2022-07-03T15:25:33;3.07;;;1.00;;
15486;SDS011;7845;53.698;10.078;2022-07-03T15:28:00;3.63;;;1.63;;
15486;SDS011;7845;53.698;10.078;2022-07-03T15:30:26;2.20;;;0.80;;
15486;SDS011;7845;53.698;10.078;2022-07-03T15:32:52;2.40;;;1.10;;
15486;SDS011;7845;53.698;10.078;2022-07-03T15:35:18;2.50;;;1.10;;
15486;SDS011;7845;53.698;10.078;2022-07-03T15:38:06;2.77;;;0.87;;
15486;SDS011;7845;53.698;10.078;2022-07-03T15:40:46;2.97;;;1.10;;
15486;SDS011;7845;53.698;10.078;2022-07-03T15:43:36;2.83;;;1.30;;
15486;SDS011;7845;53.698;10.078;2022-07-03T15:54:44;8.53;;;1.50;;
15486;SDS011;7845;53.698;10.078;2022-07-03T15:57:33;5.00;;;1.77;;
15486;SDS011;7845;53.698;10.078;2022-07-03T16:00:07;2.93;;;1.37;;
15486;SDS011;7845;53.698;10.078;2022-07-03T16:05:30;4.07;;;1.50;;
15486;SDS011;7845;53.698;10.078;2022-07-03T16:07:57;4.67;;;1.50;;
15486;SDS011;7845;53.698;10.078;2022-07-03T16:10:25;4.20;;;1.40;;
15486;SDS011;7845;53.698;10.078;2022-07-03T16:12:51;6.47;;;1.80;;
15486;SDS011;7845;53.698;10.078;2022-07-03T16:15:18;4.23;;;1.77;;
15486;SDS011;7845;53.698;10.078;2022-07-03T16:17:45;5.53;;;1.40;;
15486;SDS011;7845;53.698;10.078;2022-07-03T16:20:11;3.30;;;1.67;;
15486;SDS011;7845;53.698;10.078;2022-07-03T16:22:37;3.77;;;1.27;;
15486;SDS011;7845;53.698;10.078;2022-07-03T16:25:03;2.73;;;1.40;;
15486;SDS011;7845;53.698;10.078;2022-07-03T16:27:30;3.60;;;1.27;;
15486;SDS011;7845;53.698;10.078;2022-07-03T16:29:55;6.57;;;1.90;;
15486;SDS011;7845;53.698;10.078;2022-07-03T16:32:27;3.67;;;1.30;;
15486;SDS011;7845;53.698;10.078;2022-07-03T16:35:08;3.47;;;1.70;;
15486;SDS011;7845;53.698;10.078;2022-07-03T16:37:45;3.40;;;1.50;;
15486;SDS011;7845;53.698;10.078;2022-07-03T16:40:16;4.50;;;2.63;;
15486;SDS011;7845;53.698;10.078;2022-07-03T16:42:43;3.47;;;1.60;;
15486;SDS011;7845;53.698;10.078;2022-07-03T16:45:10;2.87;;;1.40;;
15486;SDS011;7845;53.698;10.078;2022-07-03T16:47:38;8.27;;;2.00;;
15486;SDS011;7845;53.698;10.078;2022-07-03T16:50:19;2.80;;;1.50;;
15486;SDS011;7845;53.698;10.078;2022-07-03T16:52:48;2.37;;;1.13;;